Time;durP1;ratioP1;P1;durP2;ratioP2;P2;SDS_P1;SDS_P2;PMS_P1;PMS_P2;Temp;Humidity;BMP_temperature;BMP_pressure;BME280_temperature;BME280_humidity;BME280_pressure;Samples;Min_cycle;Max_cycle;Signal;HPM_P1;HPM_P2
2023/09/15 00:01:00;;;;;;;2.23;2.03;;;;;;;17.57;nan;99669.66;4947816;28;20895;-91
2023/09/15 00:03:28;;;;;;;1.97;1.70;;;;;;;17.53;nan;99662.13;4946175;28;20471;-90
2023/09/15 00:06:19;;;;;;;;;;;;;;;;;;;;;
2023/09/15 00:20:18;;;;;;;;;;;;;;;;;;;;;
2023/09/15 00:23:47;;;;;;;;;;;;;;;;;;;;;
2023/09/15 00:26:41;;;;;;;3.43;2.53;;;;;;;17.35;nan;99654.00;4918037;28;20493;-90
2023/09/15 00:29:36;;;;;;;3.10;2.50;;;;;;;17.29;nan;99650.09;4921478;28;20468;-91
2023/09/15 00:32:24;;;;;;;;;;;;;;;;;;;;;
2023/09/15 00:35:00;;;;;;;;;;;;;;;;;;;;;
2023/09/15 00:38:10;;;;;;;;;;;;;;;;;;;;;
2023/09/15 00:41:11;;;;;;;2.57;1.83;;;;;;;17.02;nan;99646.31;4922585;28;20224;-91
2023/09/15 00:48:21;;;;;;;;;;;;;;;;;;;;;
2023/09/15 00:54:27;;;;;;;;;;;;;;;;;;;;;
2023/09/15 00:57:37;;;;;;;;;;;;;;;;;;;;;
2023/09/15 01:00:08;;;;;;;;;;;;;;;;;;;;;
2023/09/15 01:02:58;;;;;;;3.50;1.70;;;;;;;16.74;nan;99633.78;4920433;28;20468;-91
2023/09/15 01:06:27;;;;;;;;;;;;;;;;;;;;;
2023/09/15 01:09:36;;;;;;;;;;;;;;;;;;;;;
2023/09/15 01:16:24;;;;;;;;;;;;;;;;;;;;;
2023/09/15 01:19:26;;;;;;;5.90;2.17;;;;;;;16.49;nan;99640.44;4917490;28;20474;-90
2023/09/15 01:22:30;;;;;;;;;;;;;;;;;;;;;
2023/09/15 01:25:21;;;;;;;2.17;1.90;;;;;;;16.44;nan;99642.63;4926927;28;20627;-89
2023/09/15 01:28:16;;;;;;;3.20;1.52;;;;;;;16.40;nan;99638.59;4921092;28;20580;-89
2023/09/15 01:30:50;;;;;;;4.10;1.70;;;;;;;16.40;nan;99639.44;4928730;28;20252;-89
2023/09/15 01:33:28;;;;;;;3.83;2.10;;;;;;;16.40;nan;99639.44;4924006;28;20472;-91
2023/09/15 01:39:09;;;;;;;;;;;;;;;;;;;;;
2023/09/15 01:41:42;;;;;;;4.15;2.42;;;;;;;16.37;nan;99637.06;4919915;28;20939;-90
2023/09/15 01:44:23;;;;;;;3.60;2.40;;;;;;;16.34;nan;99635.50;4934880;28;20590;-89
2023/09/15 01:46:56;;;;;;;2.80;2.50;;;;;;;16.30;nan;99635.91;4913955;28;20460;-90
2023/09/15 01:49:35;;;;;;;6.13;2.80;;;;;;;16.26;nan;99637.16;4927825;28;20231;-90
2023/09/15 01:52:04;;;;;;;6.18;2.13;;;;;;;16.25;nan;99643.41;4943675;28;20247;-89
2023/09/15 01:54:34;;;;;;;5.28;2.60;;;;;;;16.27;nan;99638.81;4928201;28;20273;-89
2023/09/15 01:57:27;;;;;;;;;;;;;;;;;;;;;
2023/09/15 02:00:21;;;;;;;3.67;2.55;;;;;;;16.35;nan;99639.00;4925066;28;20459;-89
2023/09/15 02:03:04;;;;;;;;;;;;;;;;;;;;;
2023/09/15 02:05:43;;;;;;;;;;;;;;;;;;;;;
2023/09/15 02:08:32;;;;;;;5.33;2.40;;;;;;;16.28;nan;99629.88;4948821;28;20554;-89
2023/09/15 02:11:11;;;;;;;2.40;1.83;;;;;;;16.26;nan;99631.84;4933326;28;20455;-89
2023/09/15 02:13:54;;;;;;;3.75;2.03;;;;;;;16.25;nan;99638.09;4932009;28;20218;-90
2023/09/15 02:16:40;;;;;;;2.30;1.65;;;;;;;16.23;nan;99637.38;4950646;28;20215;-88
2023/09/15 02:19:08;;;;;;;4.43;2.10;;;;;;;16.21;nan;99634.91;4942568;28;20613;-89
2023/09/15 02:21:43;;;;;;;;;;;;;;;;;;;;;
2023/09/15 02:24:12;;;;;;;3.23;2.23;;;;;;;16.17;nan;99635.28;4929613;28;20363;-90
2023/09/15 02:26:52;;;;;;;;;;;;;;;;;;;;;
2023/09/15 02:29:18;;;;;;;4.35;2.47;;;;;;;16.12;nan;99635.66;4930045;28;20583;-89
2023/09/15 02:31:51;;;;;;;3.75;2.25;;;;;;;16.03;nan;99637.31;4934612;28;20770;-89
2023/09/15 02:34:36;;;;;;;;;;;;;;;;;;;;;
2023/09/15 02:37:14;;;;;;;2.28;1.70;;;;;;;15.98;nan;99628.06;4940035;28;20269;-90
2023/09/15 02:39:51;;;;;;;3.15;2.30;;;;;;;15.95;nan;99629.19;4955250;28;20219;-89
2023/09/15 02:42:37;;;;;;;2.25;2.05;;;;;;;15.95;nan;99621.22;4934685;28;20213;-89
2023/09/15 02:45:22;;;;;;;5.15;2.30;;;;;;;15.99;nan;99629.78;4934465;28;20428;-88
2023/09/15 02:47:50;;;;;;;7.20;2.83;;;;;;;16.00;nan;99626.97;4943820;28;20586;-90
2023/09/15 02:50:18;;;;;;;2.75;2.55;;;;;;;16.00;nan;99626.97;4937140;28;20462;-88
2023/09/15 02:52:46;;;;;;;3.07;2.30;;;;;;;15.98;nan;99630.72;4927833;28;20210;-90
2023/09/15 02:55:45;;;;;;;2.17;2.00;;;;;;;15.99;nan;99625.31;4930030;28;20203;-90
2023/09/15 02:58:33;;;;;;;;;;;;;;;;;;;;;
2023/09/15 03:01:21;;;;;;;5.15;3.08;;;;;;;15.96;nan;99632.66;4936939;28;20210;-90
2023/09/15 03:03:56;;;;;;;4.78;2.03;;;;;;;15.95;nan;99628.34;4920561;28;20243;-89
2023/09/15 03:06:36;;;;;;;4.65;2.50;;;;;;;15.95;nan;99626.53;4934126;28;20203;-89
2023/09/15 03:09:37;;;;;;;;;;;;;;;;;;;;;
2023/09/15 03:12:33;;;;;;;;;;;;;;;;;;;;;
2023/09/15 03:15:05;;;;;;;2.72;2.28;;;;;;;15.83;nan;99625.78;4941665;28;20225;-90
2023/09/15 03:17:50;;;;;;;3.35;2.45;;;;;;;15.77;nan;99620.16;4930674;28;20217;-89
2023/09/15 03:20:21;;;;;;;4.30;2.50;;;;;;;15.68;nan;99622.59;4927643;28;20217;-89
2023/09/15 03:22:59;;;;;;;3.87;3.03;;;;;;;15.65;nan;99616.72;4920418;28;20211;-89
2023/09/15 03:25:25;;;;;;;2.63;2.22;;;;;;;15.64;nan;99613.22;4924879;28;20458;-89
2023/09/15 03:28:04;;;;;;;4.60;2.92;;;;;;;15.61;nan;99613.50;4923705;28;20209;-90
2023/09/15 03:30:35;;;;;;;4.30;2.70;;;;;;;15.58;nan;99615.53;4924127;28;20282;-89
2023/09/15 03:33:05;;;;;;;8.45;3.20;;;;;;;15.56;nan;99607.75;4921268;28;20608;-90
2023/09/15 03:35:34;;;;;;;8.82;1.98;;;;;;;15.52;nan;99605.47;4924385;28;20192;-89
2023/09/15 03:38:47;;;;;;;;;;;;;;;;;;;;;
2023/09/15 03:41:31;;;;;;;3.53;2.25;;;;;;;15.44;nan;99608.75;4922020;28;20206;-89
2023/09/15 03:44:02;;;;;;;4.13;2.35;;;;;;;15.37;nan;99612.91;4923580;28;20207;-88
2023/09/15 03:46:41;;;;;;;;;;;;;;;;;;;;;
2023/09/15 03:49:10;;;;;;;4.30;2.70;;;;;;;15.27;nan;99616.31;4924139;28;20215;-89
2023/09/15 03:51:46;;;;;;;;;;;;;;;;;;;;;
2023/09/15 03:54:19;;;;;;;5.90;2.33;;;;;;;15.25;nan;99615.59;4925511;28;20220;-90
2023/09/15 03:56:46;;;;;;;4.30;2.30;;;;;;;15.30;nan;99609.09;4926925;28;20199;-88
2023/09/15 03:59:12;;;;;;;3.70;2.60;;;;;;;15.29;nan;99604.78;4919815;28;20455;-88
2023/09/15 04:01:48;;;;;;;;;;;;;;;;;;;;;
2023/09/15 04:04:28;;;;;;;5.32;3.17;;;;;;;15.23;nan;99612.25;4924521;28;20303;-90
2023/09/15 04:07:22;;;;;;;7.57;2.83;;;;;;;15.23;nan;99612.25;4923552;28;20962;-90
2023/09/15 04:09:53;;;;;;;6.60;2.70;;;;;;;15.26;nan;99603.22;4928669;28;20288;-91
2023/09/15 04:12:32;;;;;;;3.70;2.42;;;;;;;15.27;nan;99603.06;4921746;28;20208;-89
2023/09/15 04:15:01;;;;;;;4.25;2.50;;;;;;;15.30;nan;99606.44;4936713;28;20202;-89
2023/09/15 04:17:55;;;;;;;;;;;;;;;;;;;;;
2023/09/15 04:20:28;;;;;;;5.00;2.78;;;;;;;15.34;nan;99607.84;4924618;28;20214;-90
2023/09/15 04:23:07;;;;;;;4.70;2.65;;;;;;;15.33;nan;99601.72;4922583;28;20209;-89
2023/09/15 04:25:45;;;;;;;7.35;2.85;;;;;;;15.33;nan;99611.47;4926913;28;20205;-91
2023/09/15 04:28:13;;;;;;;4.13;2.60;;;;;;;15.33;nan;99616.75;4923607;28;20201;-90
2023/09/15 04:30:49;;;;;;;9.07;2.20;;;;;;;15.33;nan;99620.25;4926552;28;20225;-90
2023/09/15 04:33:17;;;;;;;3.95;2.35;;;;;;;15.32;nan;99615.94;4923125;28;20627;-89
2023/09/15 04:35:48;;;;;;;5.63;3.08;;;;;;;15.32;nan;99625.69;4920756;28;20431;-89
2023/09/15 04:38:41;;;;;;;8.80;3.40;;;;;;;15.30;nan;99632.91;4924609;28;20206;-89
2023/09/15 04:41:09;;;;;;;5.65;2.90;;;;;;;15.26;nan;99638.44;4921803;28;20680;-92
2023/09/15 04:43:43;;;;;;;3.20;2.80;;;;;;;15.27;nan;99639.28;4927103;28;20260;-89
2023/09/15 04:46:28;;;;;;;7.55;2.67;;;;;;;15.25;nan;99636.75;4923585;28;20202;-90
2023/09/15 04:48:54;;;;;;;6.10;3.20;;;;;;;15.25;nan;99635.91;4924745;28;20193;-89
2023/09/15 04:51:19;;;;;;;3.40;3.03;;;;;;;15.23;nan;99632.59;4920970;28;20942;-89
2023/09/15 04:53:45;;;;;;;3.30;2.13;;;;;;;15.23;nan;99638.72;4934007;28;20214;-89
2023/09/15 04:56:10;;;;;;;6.13;3.23;;;;;;;15.24;nan;99635.09;4927503;28;20193;-90
2023/09/15 04:58:37;;;;;;;4.97;1.85;;;;;;;15.27;nan;99648.06;4927734;28;20201;-90
2023/09/15 05:01:03;;;;;;;4.77;2.90;;;;;;;15.27;nan;99642.75;4926342;28;20286;-89
2023/09/15 05:03:31;;;;;;;4.35;2.33;;;;;;;15.27;nan;99648.06;4921147;28;20677;-90
2023/09/15 05:05:56;;;;;;;6.50;2.37;;;;;;;15.25;nan;99649.97;4923807;28;20249;-89
2023/09/15 05:08:22;;;;;;;4.20;2.90;;;;;;;15.23;nan;99651.09;4924049;28;21031;-89
2023/09/15 05:10:51;;;;;;;5.78;3.33;;;;;;;15.23;nan;99657.22;4925833;28;20189;-89
2023/09/15 05:13:16;;;;;;;3.20;2.27;;;;;;;15.24;nan;99656.25;4918295;28;20201;-89
2023/09/15 05:15:44;;;;;;;3.43;1.93;;;;;;;15.24;nan;99660.72;4923133;28;20202;-89
2023/09/15 05:18:10;;;;;;;4.13;2.75;;;;;;;15.22;nan;99660.81;4923590;28;20205;-89
2023/09/15 05:20:35;;;;;;;3.80;2.47;;;;;;;15.22;nan;99668.75;4920624;28;20234;-89
2023/09/15 05:23:02;;;;;;;3.42;2.95;;;;;;;15.23;nan;99669.63;4916445;28;20653;-89
2023/09/15 05:25:31;;;;;;;6.57;3.00;;;;;;;15.21;nan;99668.91;4921542;28;20674;-90
2023/09/15 05:27:57;;;;;;;4.65;3.33;;;;;;;15.18;nan;99664.72;4922545;28;20456;-90
2023/09/15 05:30:22;;;;;;;8.40;3.47;;;;;;;15.15;nan;99672.91;4918722;28;20813;-91
2023/09/15 05:32:48;;;;;;;6.07;2.57;;;;;;;15.11;nan;99674.09;4924134;28;20269;-89
2023/09/15 05:35:14;;;;;;;3.58;2.55;;;;;;;15.14;nan;99670.38;4924136;28;20228;-90
2023/09/15 05:37:49;;;;;;;3.83;2.85;;;;;;;15.17;nan;99672.75;4919992;28;20224;-89
2023/09/15 05:40:15;;;;;;;6.93;3.70;;;;;;;15.20;nan;99673.38;4920026;28;20252;-89
2023/09/15 05:42:41;;;;;;;3.70;3.20;;;;;;;15.27;nan;99677.16;4922604;28;20268;-89
2023/09/15 05:45:07;;;;;;;8.33;3.20;;;;;;;15.34;nan;99676.66;4921593;28;20565;-89
2023/09/15 05:47:33;;;;;;;4.85;2.50;;;;;;;15.40;nan;99676.16;4922991;28;20193;-89
2023/09/15 05:50:00;;;;;;;10.97;3.50;;;;;;;15.46;nan;99673.00;4925330;28;20223;-88
2023/09/15 05:52:28;;;;;;;3.58;2.80;;;;;;;15.50;nan;99671.81;4922299;28;20500;-89
2023/09/15 05:54:54;;;;;;;4.40;2.63;;;;;;;15.56;nan;99670.44;4924541;28;20773;-89
2023/09/15 05:57:20;;;;;;;6.93;2.70;;;;;;;15.58;nan;99664.06;4921191;28;20204;-89
2023/09/15 05:59:46;;;;;;;3.17;2.20;;;;;;;15.61;nan;99666.44;4923183;28;20212;-88
2023/09/15 06:02:13;;;;;;;5.57;2.85;;;;;;;15.66;nan;99661.59;4923349;28;20299;-89
2023/09/15 06:04:42;;;;;;;3.20;2.60;;;;;;;15.71;nan;99661.22;4920251;28;20261;-89
2023/09/15 06:07:07;;;;;;;5.30;3.70;;;;;;;15.76;nan;99663.50;4923879;28;21292;-89
2023/09/15 06:09:33;;;;;;;5.50;2.80;;;;;;;15.80;nan;99663.13;4922551;28;20552;-89
2023/09/15 06:11:58;;;;;;;3.53;3.20;;;;;;;15.85;nan;99660.94;4921648;28;20213;-88
2023/09/15 06:14:24;;;;;;;4.00;2.70;;;;;;;15.94;nan;99664.59;4919563;28;20283;-88
2023/09/15 06:16:50;;;;;;;4.57;2.83;;;;;;;16.03;nan;99653.19;4923399;28;20209;-90
2023/09/15 06:19:18;;;;;;;4.10;2.60;;;;;;;16.12;nan;99656.88;4921932;28;20763;-89
2023/09/15 06:21:43;;;;;;;4.30;2.97;;;;;;;16.20;nan;99662.34;4924961;28;20214;-89
2023/09/15 06:24:09;;;;;;;7.60;3.40;;;;;;;16.24;nan;99658.47;4921175;28;20576;-89
2023/09/15 06:26:38;;;;;;;4.83;2.63;;;;;;;16.27;nan;99660.03;4919743;28;20816;-88
2023/09/15 06:29:03;;;;;;;5.10;2.67;;;;;;;16.28;nan;99662.56;4920542;28;20670;-89
2023/09/15 06:31:29;;;;;;;3.33;3.03;;;;;;;16.31;nan;99662.28;4923391;28;20216;-89
2023/09/15 06:33:54;;;;;;;4.93;4.17;;;;;;;16.35;nan;99663.69;4923601;28;20686;-88
2023/09/15 06:36:21;;;;;;;8.38;3.47;;;;;;;16.41;nan;99657.00;4919621;28;20447;-89
2023/09/15 06:38:50;;;;;;;4.55;3.00;;;;;;;16.48;nan;99650.19;4921531;28;20221;-90
2023/09/15 06:41:18;;;;;;;9.45;4.50;;;;;;;16.56;nan;99657.50;4923151;28;20548;-89
2023/09/15 06:43:44;;;;;;;6.55;3.55;;;;;;;16.63;nan;99648.00;4926781;28;20198;-89
2023/09/15 06:46:10;;;;;;;4.17;3.03;;;;;;;16.67;nan;99646.78;4920965;28;20265;-88
2023/09/15 06:48:36;;;;;;;9.07;3.65;;;;;;;16.67;nan;99652.06;4939031;28;20184;-88
2023/09/15 06:51:01;;;;;;;4.10;2.97;;;;;;;16.70;nan;99656.28;4942588;28;20199;-88
2023/09/15 06:53:29;;;;;;;5.03;3.37;;;;;;;16.75;nan;99649.59;4939947;28;20198;-88
2023/09/15 06:56:00;;;;;;;5.20;4.32;;;;;;;16.80;nan;99658.00;4947592;28;20193;-89
2023/09/15 06:58:26;;;;;;;4.53;3.50;;;;;;;16.83;nan;99659.53;4939876;28;20279;-90
2023/09/15 07:00:55;;;;;;;12.32;4.00;;;;;;;16.89;nan;99645.72;4939672;28;20203;-89
2023/09/15 07:03:21;;;;;;;6.20;3.63;;;;;;;16.96;nan;99646.88;4923588;28;20296;-89
2023/09/15 07:05:46;;;;;;;6.00;4.17;;;;;;;17.01;nan;99649.94;4921874;28;20773;-89
2023/09/15 07:08:12;;;;;;;5.43;3.70;;;;;;;17.09;nan;99656.38;4918737;28;20457;-89
2023/09/15 07:10:40;;;;;;;3.70;3.10;;;;;;;17.19;nan;99657.22;4923145;28;20207;-88
2023/09/15 07:13:05;;;;;;;5.68;4.00;;;;;;;17.24;nan;99657.63;4914828;28;20292;-88
2023/09/15 07:15:34;;;;;;;5.63;4.03;;;;;;;17.22;nan;99663.06;4920766;28;20199;-90
2023/09/15 07:18:00;;;;;;;4.03;3.40;;;;;;;17.23;nan;99667.44;4921525;28;20552;-89
2023/09/15 07:20:25;;;;;;;4.93;3.80;;;;;;;17.28;nan;99660.84;4916662;28;20236;-90
2023/09/15 07:22:51;;;;;;;3.97;2.67;;;;;;;17.33;nan;99661.28;4915024;28;20442;-89
2023/09/15 07:25:16;;;;;;;5.43;4.10;;;;;;;17.42;nan;99663.94;4918494;28;20206;-88
2023/09/15 07:27:42;;;;;;;4.23;3.70;;;;;;;17.48;nan;99655.41;4920454;28;20245;-89
2023/09/15 07:30:10;;;;;;;7.50;3.90;;;;;;;17.55;nan;99660.13;4915313;28;20215;-90
2023/09/15 07:32:38;;;;;;;3.47;3.17;;;;;;;17.59;nan;99657.06;4918021;28;20205;-91
2023/09/15 07:35:04;;;;;;;7.10;4.30;;;;;;;17.61;nan;99647.16;4920313;28;20554;-89
2023/09/15 07:37:38;;;;;;;8.40;5.03;;;;;;;17.66;nan;99652.00;4917349;28;21029;-89
2023/09/15 07:40:07;;;;;;;8.13;4.27;;;;;;;17.80;nan;99638.34;4919651;28;20283;-89
2023/09/15 07:42:33;;;;;;;5.87;3.97;;;;;;;18.37;nan;99650.75;4920301;28;20544;-89
2023/09/15 07:45:00;;;;;;;5.23;3.23;;;;;;;19.18;nan;99637.56;4919708;28;20901;-90
2023/09/15 07:47:25;;;;;;;5.70;4.30;;;;;;;20.06;nan;99635.75;4923220;28;20517;-89
2023/09/15 07:49:52;;;;;;;6.13;3.53;;;;;;;20.97;nan;99631.63;4922876;28;20457;-89
2023/09/15 07:52:22;;;;;;;3.70;3.40;;;;;;;21.79;nan;99629.00;4913046;28;20404;-86
2023/09/15 07:54:48;;;;;;;5.33;3.30;;;;;;;22.50;nan;99624.66;4923097;28;20520;-86
2023/09/15 07:57:15;;;;;;;7.00;3.70;;;;;;;23.04;nan;99615.84;4924989;28;20458;-88
2023/09/15 07:59:43;;;;;;;6.37;3.57;;;;;;;23.45;nan;99626.25;4918724;28;20524;-87
2023/09/15 08:02:11;;;;;;;6.53;2.80;;;;;;;23.73;nan;99613.13;4916899;28;20207;-88
2023/09/15 08:04:36;;;;;;;4.93;3.53;;;;;;;24.21;nan;99619.81;4918175;28;20471;-87
2023/09/15 08:07:04;;;;;;;4.80;3.10;;;;;;;24.66;nan;99620.63;4918315;28;20203;-88
2023/09/15 08:09:30;;;;;;;6.57;3.70;;;;;;;25.09;nan;99617.16;4915706;28;20359;-87
2023/09/15 08:12:03;;;;;;;4.07;3.10;;;;;;;25.46;nan;99616.06;4917848;28;20457;-87
2023/09/15 08:14:29;;;;;;;5.17;3.53;;;;;;;25.89;nan;99609.81;4918810;28;20753;-87
2023/09/15 08:17:26;;;;;;;7.03;3.03;;;;;;;25.98;nan;99614.84;4915584;28;20450;-88
2023/09/15 08:19:54;;;;;;;3.93;3.00;;;;;;;25.92;nan;99617.50;4919047;28;20454;-87
2023/09/15 08:22:19;;;;;;;7.10;3.70;;;;;;;26.06;nan;99613.88;4918392;28;21678;-87
2023/09/15 08:24:48;;;;;;;8.63;4.00;;;;;;;26.19;nan;99603.19;4920966;28;20468;-88
2023/09/15 08:27:15;;;;;;;5.77;3.43;;;;;;;26.20;nan;99604.00;4923249;28;20597;-88
2023/09/15 08:29:40;;;;;;;4.73;3.97;;;;;;;26.25;nan;99599.69;4922603;28;20480;-89
2023/09/15 08:32:08;;;;;;;4.20;3.80;;;;;;;26.42;nan;99599.34;4917137;28;20477;-88
2023/09/15 08:34:33;;;;;;;3.60;3.10;;;;;;;26.43;nan;99607.19;4921927;28;20193;-88
2023/09/15 08:36:59;;;;;;;3.27;2.67;;;;;;;26.60;nan;99598.81;4925473;28;20460;-88
2023/09/15 08:39:24;;;;;;;4.80;3.07;;;;;;;26.81;nan;99595.13;4926559;28;20208;-88
2023/09/15 08:42:00;;;;;;;5.73;3.17;;;;;;;27.03;nan;99593.97;4921303;28;20429;-89
2023/09/15 08:44:32;;;;;;;4.23;3.47;;;;;;;27.19;nan;99587.34;4923151;28;20717;-90
2023/09/15 08:47:00;;;;;;;6.00;3.20;;;;;;;27.21;nan;99595.25;4924344;28;20462;-89
2023/09/15 08:49:29;;;;;;;5.63;3.80;;;;;;;27.07;nan;99589.81;4920429;28;20563;-89
2023/09/15 08:52:03;;;;;;;5.63;3.47;;;;;;;26.93;nan;99588.13;4921936;28;20456;-88
2023/09/15 08:54:30;;;;;;;6.60;4.80;;;;;;;26.65;nan;99591.81;4921472;28;20434;-89
2023/09/15 08:56:56;;;;;;;6.93;4.07;;;;;;;26.50;nan;99588.38;4925005;28;20420;-88
2023/09/15 08:59:23;;;;;;;4.90;3.80;;;;;;;26.26;nan;99585.19;4921022;28;20476;-88
2023/09/15 09:01:51;;;;;;;4.50;3.47;;;;;;;26.17;nan;99590.94;4922906;28;20947;-88
2023/09/15 09:04:17;;;;;;;4.37;3.60;;;;;;;25.92;nan;99593.25;4920422;28;20437;-88
2023/09/15 09:06:43;;;;;;;4.40;3.20;;;;;;;25.63;nan;99589.75;4929244;28;20438;-88
2023/09/15 09:09:12;;;;;;;4.20;3.27;;;;;;;25.31;nan;99591.97;4935839;28;20684;-90
2023/09/15 09:11:37;;;;;;;4.23;3.73;;;;;;;24.84;nan;99592.50;4932191;28;20430;-89
2023/09/15 09:14:10;;;;;;;4.53;3.40;;;;;;;24.56;nan;99582.50;4933749;28;20434;-88
2023/09/15 09:16:36;;;;;;;6.80;3.60;;;;;;;24.28;nan;99593.06;4936613;28;20185;-88
2023/09/15 09:19:03;;;;;;;4.83;3.87;;;;;;;24.04;nan;99592.34;4943015;28;20499;-89
2023/09/15 09:21:38;;;;;;;7.90;3.63;;;;;;;23.94;nan;99593.63;4927405;28;20199;-89
2023/09/15 09:24:05;;;;;;;9.03;3.70;;;;;;;23.93;nan;99582.06;4923451;28;20440;-88
2023/09/15 09:26:33;;;;;;;5.13;3.20;;;;;;;23.94;nan;99580.22;4927280;28;20502;-88
2023/09/15 09:28:59;;;;;;;7.57;3.57;;;;;;;23.88;nan;99575.59;4914652;28;20471;-89
2023/09/15 09:31:26;;;;;;;4.10;3.13;;;;;;;23.95;nan;99572.00;4931378;28;20928;-88
2023/09/15 09:33:53;;;;;;;4.37;3.40;;;;;;;24.13;nan;99581.50;4924078;28;20227;-89
2023/09/15 09:36:21;;;;;;;5.73;3.33;;;;;;;24.05;nan;99583.25;4922492;28;20511;-88
2023/09/15 09:38:49;;;;;;;5.50;3.60;;;;;;;23.96;nan;99570.97;4920292;28;20464;-88
2023/09/15 09:41:20;;;;;;;5.70;3.80;;;;;;;23.93;nan;99571.34;4917837;28;20439;-88
2023/09/15 09:43:47;;;;;;;5.60;3.17;;;;;;;23.91;nan;99565.31;4907314;28;20431;-88
2023/09/15 09:46:14;;;;;;;5.20;4.20;;;;;;;24.00;nan;99569.56;4919721;28;20408;-89
2023/09/15 09:48:45;;;;;;;4.80;3.50;;;;;;;23.99;nan;99562.53;4921985;28;21266;-90
2023/09/15 09:51:15;;;;;;;4.80;3.20;;;;;;;24.02;nan;99562.16;4919462;28;20423;-89
2023/09/15 09:53:41;;;;;;;6.60;3.13;;;;;;;24.08;nan;99557.91;4922379;28;20427;-89
2023/09/15 09:56:07;;;;;;;4.77;4.23;;;;;;;23.90;nan;99558.28;4919293;28;20429;-89
2023/09/15 09:58:36;;;;;;;4.23;3.83;;;;;;;23.79;nan;99550.69;4920979;28;20216;-88
2023/09/15 10:01:04;;;;;;;4.93;3.20;;;;;;;23.78;nan;99552.53;4919257;28;20450;-89
2023/09/15 10:03:30;;;;;;;8.03;4.23;;;;;;;23.87;nan;99545.22;4922001;28;20534;-90
2023/09/15 10:05:57;;;;;;;4.93;3.40;;;;;;;23.97;nan;99551.16;4922167;28;21133;-88
2023/09/15 10:08:29;;;;;;;5.80;3.67;;;;;;;24.07;nan;99549.03;4918351;28;20197;-88
2023/09/15 10:10:55;;;;;;;4.57;3.90;;;;;;;24.18;nan;99544.22;4918073;28;20953;-89
2023/09/15 10:13:22;;;;;;;4.80;3.40;;;;;;;24.26;nan;99536.06;4916649;28;21073;-88
2023/09/15 10:15:50;;;;;;;6.27;3.90;;;;;;;24.39;nan;99540.75;4925578;28;20494;-89
2023/09/15 10:18:17;;;;;;;4.10;2.90;;;;;;;24.59;nan;99539.13;4921433;28;20450;-90
2023/09/15 10:20:49;;;;;;;4.67;4.17;;;;;;;24.69;nan;99536.97;4920419;28;20464;-89
2023/09/15 10:23:17;;;;;;;8.23;4.47;;;;;;;24.70;nan;99532.44;4915675;28;20456;-90
2023/09/15 10:25:47;;;;;;;6.13;4.13;;;;;;;24.75;nan;99539.94;4919901;28;20467;-89
2023/09/15 10:28:14;;;;;;;7.93;5.00;;;;;;;24.86;nan;99532.19;4921243;28;20870;-89
2023/09/15 10:30:40;;;;;;;7.47;5.43;;;;;;;24.91;nan;99529.75;4922210;28;20443;-88
2023/09/15 10:33:09;;;;;;;5.77;3.83;;;;;;;25.01;nan;99536.69;4920426;28;20474;-89
2023/09/15 10:35:39;;;;;;;4.97;4.23;;;;;;;25.06;nan;99527.00;4918860;28;20445;-89
2023/09/15 10:38:05;;;;;;;6.53;5.00;;;;;;;25.23;nan;99522.22;4913275;28;20443;-89
2023/09/15 10:40:47;;;;;;;6.87;4.23;;;;;;;25.39;nan;99527.28;4921170;28;20471;-90
2023/09/15 10:43:13;;;;;;;5.80;4.17;;;;;;;25.37;nan;99517.75;4919914;28;20205;-90
2023/09/15 10:45:39;;;;;;;5.03;4.27;;;;;;;25.41;nan;99513.66;4917191;28;20475;-89
2023/09/15 10:48:08;;;;;;;4.77;4.20;;;;;;;25.36;nan;99514.25;4917988;28;20801;-89
2023/09/15 10:50:39;;;;;;;6.10;4.80;;;;;;;25.33;nan;99511.94;4920352;28;20491;-89
2023/09/15 10:53:13;;;;;;;7.23;3.70;;;;;;;25.42;nan;99506.44;4923610;28;20438;-88
2023/09/15 10:55:40;;;;;;;6.50;4.67;;;;;;;25.50;nan;99504.41;4921658;28;20466;-89
2023/09/15 10:58:09;;;;;;;8.30;4.20;;;;;;;25.60;nan;99501.38;4920411;28;20585;-89
2023/09/15 11:00:35;;;;;;;4.83;4.37;;;;;;;25.61;nan;99492.28;4918658;28;20464;-89
2023/09/15 11:03:03;;;;;;;5.53;3.80;;;;;;;25.67;nan;99487.94;4921031;28;20537;-89
2023/09/15 11:05:29;;;;;;;5.87;4.07;;;;;;;25.75;nan;99475.16;4923205;28;20453;-89
2023/09/15 11:07:56;;;;;;;5.67;4.73;;;;;;;25.80;nan;99474.56;4923713;28;20477;-89
2023/09/15 11:10:34;;;;;;;5.03;4.57;;;;;;;25.69;nan;99481.34;4918819;28;20827;-88
2023/09/15 11:13:02;;;;;;;4.33;3.93;;;;;;;25.71;nan;99473.91;4917719;28;20512;-89
2023/09/15 11:15:30;;;;;;;6.20;3.83;;;;;;;25.74;nan;99475.38;4916740;28;20579;-89
2023/09/15 11:17:57;;;;;;;4.90;4.03;;;;;;;25.74;nan;99468.13;4920509;28;20550;-90
2023/09/15 11:20:23;;;;;;;5.03;4.57;;;;;;;25.67;nan;99459.19;4916464;28;20467;-90
2023/09/15 11:23:00;;;;;;;5.20;3.87;;;;;;;25.73;nan;99463.75;4918403;28;20195;-90
2023/09/15 11:25:26;;;;;;;3.93;3.63;;;;;;;25.74;nan;99459.25;4920163;28;20434;-89
2023/09/15 11:27:53;;;;;;;6.13;4.67;;;;;;;25.67;nan;99452.97;4920077;28;20979;-88
2023/09/15 11:30:25;;;;;;;9.13;4.53;;;;;;;25.65;nan;99455.84;4917872;28;20231;-89
2023/09/15 11:32:50;;;;;;;5.50;4.10;;;;;;;25.62;nan;99450.88;4920851;28;20466;-88
2023/09/15 11:35:18;;;;;;;5.43;4.30;;;;;;;25.61;nan;99446.53;4920004;28;20455;-90
2023/09/15 11:37:44;;;;;;;5.30;4.80;;;;;;;25.69;nan;99449.06;4916805;28;20323;-89
2023/09/15 11:40:23;;;;;;;5.23;4.43;;;;;;;25.77;nan;99446.22;4916261;28;21059;-89
2023/09/15 11:42:56;;;;;;;7.40;4.50;;;;;;;25.78;nan;99450.53;4919066;28;20469;-89
2023/09/15 11:45:28;;;;;;;4.50;4.10;;;;;;;25.83;nan;99442.75;4917113;28;20530;-90
2023/09/15 11:47:57;;;;;;;4.83;4.30;;;;;;;25.85;nan;99434.47;4913301;28;20534;-90
2023/09/15 11:50:23;;;;;;;4.90;4.50;;;;;;;25.82;nan;99441.06;4915266;28;20456;-90
2023/09/15 11:52:49;;;;;;;6.20;3.90;;;;;;;25.81;nan;99434.00;4919546;28;21273;-91
2023/09/15 11:55:19;;;;;;;5.60;5.00;;;;;;;25.81;nan;99434.00;4914976;28;20460;-90
2023/09/15 11:57:45;;;;;;;5.53;5.03;;;;;;;25.78;nan;99428.19;4914257;28;20697;-89
2023/09/15 12:00:14;;;;;;;5.77;3.90;;;;;;;25.73;nan;99431.47;4918739;28;20566;-90
2023/09/15 12:02:40;;;;;;;5.10;4.20;;;;;;;25.75;nan;99429.44;4916199;28;20466;-89
2023/09/15 12:05:09;;;;;;;4.70;3.93;;;;;;;25.79;nan;99425.31;4918386;28;20451;-91
2023/09/15 12:07:40;;;;;;;6.07;4.63;;;;;;;25.83;nan;99417.66;4916913;28;20286;-90
2023/09/15 12:10:08;;;;;;;4.57;4.17;;;;;;;25.86;nan;99413.78;4918715;28;20982;-90
2023/09/15 12:12:36;;;;;;;5.70;4.07;;;;;;;25.85;nan;99417.50;4917205;28;20567;-90
2023/09/15 12:15:04;;;;;;;5.20;4.50;;;;;;;25.88;nan;99409.84;4918777;28;20458;-89
2023/09/15 12:17:46;;;;;;;;;;;;;;;;;;;;;
2023/09/15 12:20:12;;;;;;;8.17;4.47;;;;;;;25.97;nan;99400.56;4916273;28;20502;-89
2023/09/15 12:22:52;;;;;;;5.27;4.70;;;;;;;26.01;nan;99396.44;4918136;28;20535;-89
2023/09/15 12:25:19;;;;;;;6.73;5.10;;;;;;;26.04;nan;99389.81;4918088;28;20478;-91
2023/09/15 12:27:46;;;;;;;7.97;5.50;;;;;;;25.99;nan;99382.34;4915779;28;20453;-90
2023/09/15 12:30:14;;;;;;;4.97;4.47;;;;;;;26.00;nan;99388.56;4920782;28;20235;-89
2023/09/15 12:32:44;;;;;;;5.87;5.33;;;;;;;26.00;nan;99386.69;4919491;28;20459;-90
2023/09/15 12:35:11;;;;;;;4.43;4.03;;;;;;;25.99;nan;99389.59;4917242;28;20456;-90
2023/09/15 12:37:44;;;;;;;6.53;5.27;;;;;;;25.90;nan;99378.19;4920275;28;20503;-91
2023/09/15 12:40:12;;;;;;;5.00;4.30;;;;;;;25.89;nan;99373.00;4917333;28;20455;-90
2023/09/15 12:42:40;;;;;;;7.17;4.97;;;;;;;25.90;nan;99372.81;4915567;28;20470;-90
2023/09/15 12:45:07;;;;;;;5.27;4.17;;;;;;;25.91;nan;99373.63;4920120;28;20455;-90
2023/09/15 12:47:33;;;;;;;4.10;3.70;;;;;;;25.96;nan;99368.47;4921658;28;20435;-90
2023/09/15 12:50:05;;;;;;;5.50;5.00;;;;;;;25.85;nan;99364.53;4918219;28;20550;-90
2023/09/15 12:52:34;;;;;;;4.63;4.20;;;;;;;25.87;nan;99367.84;4918861;28;20473;-90
2023/09/15 12:55:03;;;;;;;7.50;5.10;;;;;;;25.97;nan;99356.66;4921863;28;20450;-90
2023/09/15 12:57:29;;;;;;;5.73;5.07;;;;;;;26.07;nan;99356.28;4920980;28;20452;-88
2023/09/15 12:59:55;;;;;;;6.47;4.70;;;;;;;26.17;nan;99356.72;4916758;28;20949;-89
2023/09/15 13:02:20;;;;;;;5.60;4.97;;;;;;;26.22;nan;99352.38;4917833;28;20208;-90
2023/09/15 13:04:48;;;;;;;5.80;4.40;;;;;;;26.18;nan;99348.44;4919038;28;20246;-90
2023/09/15 13:07:14;;;;;;;5.07;4.57;;;;;;;26.10;nan;99343.25;4915662;28;20345;-91
2023/09/15 13:09:39;;;;;;;5.43;4.83;;;;;;;26.14;nan;99339.13;4919294;28;20698;-91
2023/09/15 13:12:06;;;;;;;6.73;5.00;;;;;;;26.20;nan;99334.78;4920940;28;20224;-89
2023/09/15 13:14:34;;;;;;;6.30;5.70;;;;;;;26.19;nan;99333.09;4918436;28;20716;-89
2023/09/15 13:16:59;;;;;;;5.13;4.53;;;;;;;26.01;nan;99331.03;4922402;28;20438;-90
2023/09/15 13:19:25;;;;;;;6.07;4.73;;;;;;;26.05;nan;99324.19;4919600;28;20985;-90